Disclaimer

Please do not use the information listed here in-flight or in-navigation, as they are not provided to us by the airports but are provided by volunteers, so they might be outdated.

Search


Regions


Airport information page

Radio informations:
Tower (TWR) - 118.4 MHz

Airport informations:
Latitude: 12° 59' 12.31" S
Longitude: 040° 31' 20.97" E
Elevation: 331 feet - 101 meters
Operating hours: Remarks
Operating agency: Civil government, landing fees and diplomatic clearance may be required
Timezone: UTC+2
Fuel: Unknown fuel type or whether there is any fuel.

Runway information:
08/26 - 2625 x 98 feet< - >800 x 30 meters
17/35 - 5905 x 148 feet< - >1800 x 45 meters

Recent METARs:
FQPB 160900Z 15012KT 9999 TS SCT020 FEW025CB BKN/// 31/24 Q1014 RMK CB TO SE/SW/W/NW
FQPB 160900Z 15012KT 9999 TS SCT020 FEW025CB BKN/// 31/24 Q1014 RMK CB TO SE/SW/W/NW
FQPB 160900Z 15012KT 9999 TS SCT020 FEW025CB BKN/// 31/24 Q1014 RMK CB TO SE/SW/W/NW

Airport on the map: